createdAt,value
2017-01-17T00:00:21.840Z,0
2017-01-17T00:01:03.498Z,0
2017-01-17T00:01:44.161Z,0
2017-01-17T00:02:24.731Z,0
2017-01-17T00:03:05.344Z,0
2017-01-17T00:03:46.011Z,0
2017-01-17T00:04:26.580Z,0
2017-01-17T00:05:07.213Z,0
2017-01-17T00:05:47.862Z,0
2017-01-17T00:06:28.422Z,0
2017-01-17T00:07:09.060Z,0
2017-01-17T00:07:49.729Z,0
2017-01-17T00:08:30.296Z,0
2017-01-17T00:09:10.866Z,0
2017-01-17T00:09:51.472Z,0
2017-01-17T00:10:32.136Z,0
2017-01-17T00:11:12.702Z,0
2017-01-17T00:11:53.267Z,0
2017-01-17T00:12:33.879Z,0
2017-01-17T00:13:14.537Z,0
2017-01-17T00:13:55.182Z,0
2017-01-17T00:14:35.850Z,0
2017-01-17T00:15:16.512Z,0
2017-01-17T00:15:57.138Z,0
2017-01-17T00:16:37.800Z,0
2017-01-17T00:17:18.448Z,0
2017-01-17T00:17:59.101Z,0
2017-01-17T00:18:39.665Z,0
2017-01-17T00:19:20.258Z,0
2017-01-17T00:20:00.852Z,0
2017-01-17T00:20:41.508Z,0
2017-01-17T00:21:22.070Z,0
2017-01-17T00:22:02.665Z,0
2017-01-17T00:22:43.258Z,0
2017-01-17T00:23:23.918Z,0
2017-01-17T00:24:04.483Z,0
2017-01-17T00:24:45.071Z,0
2017-01-17T00:25:25.619Z,0
2017-01-17T00:26:06.226Z,0
2017-01-17T00:26:46.801Z,0
2017-01-17T00:27:27.476Z,0
2017-01-17T00:28:08.079Z,0
2017-01-17T00:28:48.656Z,0
2017-01-17T00:29:29.271Z,0
2017-01-17T00:30:09.934Z,0
2017-01-17T00:30:50.487Z,0
2017-01-17T00:31:31.145Z,0
2017-01-17T00:32:11.793Z,0
2017-01-17T00:32:52.444Z,0
2017-01-17T00:33:33.117Z,0
2017-01-17T00:34:13.750Z,0
2017-01-17T00:34:54.403Z,0
2017-01-17T00:35:35.671Z,0
2017-01-17T00:36:16.325Z,0
2017-01-17T00:36:56.974Z,0
2017-01-17T00:37:37.531Z,0
2017-01-17T00:38:18.193Z,0
2017-01-17T00:38:58.839Z,0
2017-01-17T00:39:39.383Z,0
2017-01-17T00:40:20.032Z,0
2017-01-17T00:41:00.695Z,0
2017-01-17T00:41:41.286Z,0
2017-01-17T00:42:21.897Z,0
2017-01-17T00:43:02.556Z,0
2017-01-17T00:43:43.198Z,0
2017-01-17T00:44:23.856Z,0
2017-01-17T00:45:04.504Z,0
2017-01-17T00:45:45.157Z,0
2017-01-17T00:46:25.820Z,0
2017-01-17T00:47:06.464Z,0
2017-01-17T00:47:47.023Z,0
2017-01-17T00:48:27.642Z,0
2017-01-17T00:49:08.315Z,0
2017-01-17T00:49:48.977Z,0
2017-01-17T00:50:29.566Z,0
2017-01-17T00:51:10.280Z,0
2017-01-17T00:51:50.948Z,0
2017-01-17T00:52:31.595Z,0
2017-01-17T00:53:12.840Z,0
2017-01-17T00:53:53.503Z,0
2017-01-17T00:54:34.159Z,0
2017-01-17T00:55:14.813Z,0
2017-01-17T00:55:56.487Z,0
2017-01-17T00:56:38.174Z,0
2017-01-17T00:57:18.756Z,0
2017-01-17T00:57:59.369Z,0
2017-01-17T00:58:40.033Z,0
2017-01-17T00:59:20.613Z,0
2017-01-17T01:00:01.297Z,0
2017-01-17T01:00:41.878Z,0
2017-01-17T01:01:22.530Z,0
2017-01-17T01:02:03.091Z,0
2017-01-17T01:02:43.672Z,0
2017-01-17T01:03:24.258Z,0
2017-01-17T01:04:04.977Z,0
2017-01-17T01:04:46.615Z,0
2017-01-17T01:05:27.279Z,0
2017-01-17T01:06:07.825Z,0
2017-01-17T01:06:48.421Z,0
2017-01-17T01:07:29.025Z,0
2017-01-17T01:08:09.675Z,0
2017-01-17T01:08:50.248Z,0
2017-01-17T01:09:30.863Z,0
2017-01-17T01:10:11.528Z,0
2017-01-17T01:10:52.183Z,0
2017-01-17T01:11:32.763Z,0
2017-01-17T01:12:13.355Z,0
2017-01-17T01:12:54.039Z,0
2017-01-17T01:13:34.718Z,0
2017-01-17T01:14:15.551Z,0
2017-01-17T01:14:56.406Z,0
2017-01-17T01:15:37.087Z,0
2017-01-17T01:16:17.767Z,0
2017-01-17T01:16:58.366Z,0
2017-01-17T01:17:39.025Z,0
2017-01-17T01:18:19.675Z,0
2017-01-17T01:19:00.256Z,0
2017-01-17T01:19:40.873Z,0
2017-01-17T01:20:21.526Z,0
2017-01-17T01:21:02.104Z,0
2017-01-17T01:21:42.737Z,0
2017-01-17T01:22:23.340Z,0
2017-01-17T01:23:03.932Z,0
2017-01-17T01:23:44.593Z,0
2017-01-17T01:24:25.193Z,0
2017-01-17T01:25:05.787Z,0
2017-01-17T01:25:47.365Z,0
2017-01-17T01:26:27.942Z,0
2017-01-17T01:27:08.557Z,0
2017-01-17T01:27:49.317Z,0
2017-01-17T01:28:29.875Z,0
2017-01-17T01:29:10.481Z,0
2017-01-17T01:29:51.081Z,0
2017-01-17T01:30:31.753Z,0
2017-01-17T01:31:12.352Z,0
2017-01-17T01:31:53.036Z,0
2017-01-17T01:32:33.693Z,0
2017-01-17T01:33:14.342Z,0
2017-01-17T01:33:56.018Z,0
2017-01-17T01:34:36.675Z,0
2017-01-17T01:35:17.343Z,0
2017-01-17T01:35:57.978Z,0
2017-01-17T01:36:38.654Z,0
2017-01-17T01:37:19.290Z,0
2017-01-17T01:38:00.974Z,0
2017-01-17T01:38:41.546Z,0
2017-01-17T01:39:22.165Z,0
2017-01-17T01:40:02.821Z,0
2017-01-17T01:40:43.472Z,0
2017-01-17T01:41:24.121Z,0
2017-01-17T01:42:04.779Z,0
2017-01-17T01:42:45.365Z,0
2017-01-17T01:43:26.954Z,0
2017-01-17T01:44:07.568Z,0
2017-01-17T01:44:48.213Z,0
2017-01-17T01:45:28.789Z,0
2017-01-17T01:46:09.485Z,0
2017-01-17T01:46:51.078Z,0
2017-01-17T01:47:31.641Z,0
2017-01-17T01:48:12.248Z,0
2017-01-17T01:48:52.958Z,0
2017-01-17T01:49:34.639Z,0
2017-01-17T01:50:15.290Z,0
2017-01-17T01:50:56.951Z,0
2017-01-17T01:51:38.633Z,0
2017-01-17T01:52:19.280Z,0
2017-01-17T01:52:59.820Z,0
2017-01-17T01:53:40.486Z,0
2017-01-17T01:54:21.137Z,0
2017-01-17T01:55:01.762Z,0
2017-01-17T01:55:42.452Z,0
2017-01-17T01:56:24.115Z,0
2017-01-17T01:57:04.691Z,0
2017-01-17T01:57:45.317Z,0
2017-01-17T01:58:25.977Z,0
2017-01-17T01:59:06.554Z,0
2017-01-17T01:59:48.205Z,0
2017-01-17T02:00:28.859Z,0
2017-01-17T02:01:09.453Z,0
2017-01-17T02:01:50.054Z,0
2017-01-17T02:02:31.640Z,0
2017-01-17T02:03:12.212Z,0
2017-01-17T02:03:52.894Z,0
2017-01-17T02:04:33.542Z,0
2017-01-17T02:05:14.194Z,0
2017-01-17T02:05:54.849Z,0
2017-01-17T02:06:35.523Z,0
2017-01-17T02:07:16.154Z,0
2017-01-17T02:07:56.859Z,0
2017-01-17T02:08:37.505Z,0
2017-01-17T02:09:18.164Z,0
2017-01-17T02:09:58.817Z,0
2017-01-17T02:10:40.495Z,0
2017-01-17T02:11:21.147Z,0
2017-01-17T02:12:01.798Z,0
2017-01-17T02:12:42.374Z,0
2017-01-17T02:13:23.064Z,0
2017-01-17T02:14:03.657Z,0
2017-01-17T02:14:44.234Z,0
2017-01-17T02:15:24.814Z,0
2017-01-17T02:16:05.485Z,0
2017-01-17T02:16:46.165Z,0
2017-01-17T02:17:27.839Z,0
2017-01-17T02:18:08.496Z,0
2017-01-17T02:18:49.160Z,0
2017-01-17T02:19:29.799Z,0
2017-01-17T02:20:10.453Z,0
2017-01-17T02:20:51.109Z,0
2017-01-17T02:21:31.759Z,0
2017-01-17T02:22:12.326Z,0
2017-01-17T02:22:52.963Z,0
2017-01-17T02:23:33.618Z,0
2017-01-17T02:24:14.267Z,0
2017-01-17T02:24:55.948Z,0
2017-01-17T02:25:36.602Z,0
2017-01-17T02:26:18.277Z,0
2017-01-17T02:26:58.933Z,0
2017-01-17T02:27:39.578Z,0
2017-01-17T02:28:20.237Z,0
2017-01-17T02:29:00.890Z,0
2017-01-17T02:29:41.550Z,0
2017-01-17T02:30:22.203Z,0
2017-01-17T02:31:02.849Z,0
2017-01-17T02:31:43.496Z,0
2017-01-17T02:32:24.148Z,0
2017-01-17T02:33:04.716Z,0
2017-01-17T02:33:45.404Z,0
2017-01-17T02:34:26.019Z,0
2017-01-17T02:35:06.650Z,0
2017-01-17T02:35:47.214Z,0
2017-01-17T02:36:29.551Z,0
2017-01-17T02:37:10.161Z,0
2017-01-17T02:37:50.911Z,0
2017-01-17T02:38:31.566Z,0
2017-01-17T02:39:12.217Z,0
2017-01-17T02:39:53.897Z,0
2017-01-17T02:40:34.544Z,0
2017-01-17T02:41:15.200Z,0
2017-01-17T02:41:55.854Z,0
2017-01-17T02:42:36.517Z,0
2017-01-17T02:43:18.195Z,0
2017-01-17T02:43:58.837Z,0
2017-01-17T02:44:39.489Z,0
2017-01-17T02:45:20.173Z,0
2017-01-17T02:46:00.798Z,0
2017-01-17T02:46:41.449Z,0
2017-01-17T02:47:23.139Z,0
2017-01-17T02:48:04.804Z,0
2017-01-17T02:48:46.482Z,0
2017-01-17T02:49:27.134Z,0
2017-01-17T02:50:07.875Z,0
2017-01-17T02:50:48.673Z,0
2017-01-17T02:51:29.295Z,0
2017-01-17T02:52:09.955Z,0
2017-01-17T02:52:50.653Z,0
2017-01-17T02:53:31.304Z,0
2017-01-17T02:54:11.907Z,0
2017-01-17T02:54:53.589Z,0
2017-01-17T02:55:34.188Z,0
2017-01-17T02:56:14.866Z,0
2017-01-17T02:56:55.437Z,0
2017-01-17T02:57:36.101Z,0
2017-01-17T02:58:16.694Z,0
2017-01-17T02:58:57.288Z,0
2017-01-17T02:59:37.950Z,0
2017-01-17T03:00:18.521Z,0
2017-01-17T03:00:59.091Z,0
2017-01-17T03:01:39.698Z,0
2017-01-17T03:02:20.843Z,0
2017-01-17T03:03:01.409Z,0
2017-01-17T03:03:41.998Z,0
2017-01-17T03:04:22.669Z,0
2017-01-17T03:05:03.366Z,0
2017-01-17T03:05:43.917Z,0
2017-01-17T03:06:24.602Z,0
2017-01-17T03:07:05.209Z,0
2017-01-17T03:07:45.780Z,0
2017-01-17T03:08:26.388Z,0
2017-01-17T03:09:06.962Z,0
2017-01-17T03:09:47.505Z,0
2017-01-17T03:10:28.119Z,0
2017-01-17T03:11:08.718Z,0
2017-01-17T03:11:49.369Z,0
2017-01-17T03:12:29.933Z,0
2017-01-17T03:13:10.567Z,0
2017-01-17T03:13:51.221Z,0
2017-01-17T03:14:31.873Z,0
2017-01-17T03:15:12.527Z,0
2017-01-17T03:15:53.178Z,0
2017-01-17T03:16:33.832Z,0
2017-01-17T03:17:14.482Z,0
2017-01-17T03:17:55.042Z,0
2017-01-17T03:18:35.672Z,0
2017-01-17T03:19:16.341Z,0
2017-01-17T03:19:56.920Z,0
2017-01-17T03:20:37.515Z,0
2017-01-17T03:21:18.085Z,0
2017-01-17T03:21:58.747Z,0
2017-01-17T03:22:39.357Z,0
2017-01-17T03:23:19.997Z,0
2017-01-17T03:24:00.683Z,0
2017-01-17T03:24:41.264Z,0
2017-01-17T03:25:21.928Z,0
2017-01-17T03:26:02.537Z,0
2017-01-17T03:26:43.191Z,0
2017-01-17T03:27:23.837Z,0
2017-01-17T03:28:04.499Z,0
2017-01-17T03:28:45.150Z,0
2017-01-17T03:29:25.803Z,0
2017-01-17T03:30:06.448Z,0
2017-01-17T03:30:47.135Z,0
2017-01-17T03:31:27.754Z,0
2017-01-17T03:32:08.406Z,0
2017-01-17T03:32:48.985Z,0
2017-01-17T03:33:29.619Z,0
2017-01-17T03:34:10.271Z,0
2017-01-17T03:34:50.843Z,0
2017-01-17T03:35:31.472Z,0
2017-01-17T03:36:12.128Z,0
2017-01-17T03:36:52.700Z,0
2017-01-17T03:37:33.341Z,0
2017-01-17T03:38:13.983Z,0
2017-01-17T03:38:54.635Z,0
2017-01-17T03:39:35.203Z,0
2017-01-17T03:40:15.790Z,0
2017-01-17T03:40:56.492Z,0
2017-01-17T03:41:37.657Z,0
2017-01-17T03:42:18.257Z,0
2017-01-17T03:42:58.935Z,0
2017-01-17T03:43:39.624Z,0
2017-01-17T03:44:20.268Z,0
2017-01-17T03:45:00.840Z,0
2017-01-17T03:45:41.414Z,0
2017-01-17T03:46:22.034Z,0
2017-01-17T03:47:02.672Z,0
2017-01-17T03:47:43.246Z,0
2017-01-17T03:48:23.827Z,0
2017-01-17T03:49:05.489Z,0
2017-01-17T03:49:46.216Z,0
2017-01-17T03:50:26.776Z,0
2017-01-17T03:51:07.359Z,0
2017-01-17T03:51:47.968Z,0
2017-01-17T03:52:28.615Z,0
2017-01-17T03:53:09.260Z,0
2017-01-17T03:53:49.920Z,0
2017-01-17T03:54:30.572Z,0
2017-01-17T03:55:11.232Z,0
2017-01-17T03:55:51.880Z,0
2017-01-17T03:56:32.528Z,0
2017-01-17T03:57:13.186Z,0
2017-01-17T03:57:53.749Z,0
2017-01-17T03:58:34.403Z,0
2017-01-17T03:59:15.064Z,0
2017-01-17T03:59:55.632Z,0
2017-01-17T04:00:36.259Z,0
2017-01-17T04:01:16.906Z,0
2017-01-17T04:01:57.463Z,0
2017-01-17T04:02:38.100Z,0
2017-01-17T04:03:18.752Z,0
2017-01-17T04:03:59.407Z,0
2017-01-17T04:04:40.057Z,0
2017-01-17T04:05:20.715Z,0
2017-01-17T04:06:01.285Z,0
2017-01-17T04:06:41.854Z,0
2017-01-17T04:07:22.515Z,0
2017-01-17T04:08:03.171Z,0
2017-01-17T04:08:43.791Z,0
2017-01-17T04:09:24.428Z,0
2017-01-17T04:10:05.024Z,0
2017-01-17T04:10:45.681Z,0
2017-01-17T04:11:26.292Z,0
2017-01-17T04:12:06.962Z,0
2017-01-17T04:12:47.532Z,0
2017-01-17T04:13:28.188Z,0
2017-01-17T04:14:08.905Z,0
2017-01-17T04:14:49.494Z,0
2017-01-17T04:15:30.136Z,0
2017-01-17T04:16:10.826Z,0
2017-01-17T04:16:51.466Z,0
2017-01-17T04:17:32.106Z,0
2017-01-17T04:18:12.709Z,0
2017-01-17T04:18:54.285Z,0
2017-01-17T04:19:34.924Z,0
2017-01-17T04:20:15.591Z,0
2017-01-17T04:20:56.152Z,0
2017-01-17T04:21:36.797Z,0
2017-01-17T04:22:17.365Z,0
2017-01-17T04:22:57.921Z,0
2017-01-17T04:23:38.555Z,0
2017-01-17T04:24:19.209Z,0
2017-01-17T04:24:59.855Z,0
2017-01-17T04:25:40.505Z,0
2017-01-17T04:26:21.164Z,0
2017-01-17T04:27:01.818Z,0
2017-01-17T04:27:42.471Z,0
2017-01-17T04:28:23.035Z,0
2017-01-17T04:29:03.675Z,0
2017-01-17T04:29:44.326Z,0
2017-01-17T04:30:24.888Z,0
2017-01-17T04:31:05.537Z,0
2017-01-17T04:31:46.175Z,0
2017-01-17T04:32:26.737Z,0
2017-01-17T04:33:07.388Z,0
2017-01-17T04:33:48.234Z,0
2017-01-17T04:34:28.890Z,0
2017-01-17T04:35:09.550Z,0
2017-01-17T04:35:50.202Z,0
2017-01-17T04:36:30.849Z,0
2017-01-17T04:37:11.422Z,0
2017-01-17T04:37:52.051Z,0
2017-01-17T04:38:32.703Z,0
2017-01-17T04:39:13.363Z,0
2017-01-17T04:39:54.023Z,0
2017-01-17T04:40:34.673Z,0
2017-01-17T04:41:15.316Z,0
2017-01-17T04:41:55.973Z,0
2017-01-17T04:42:36.621Z,0
2017-01-17T04:43:17.187Z,0
2017-01-17T04:43:57.776Z,0
2017-01-17T04:44:38.384Z,0
2017-01-17T04:45:19.032Z,0
2017-01-17T04:45:59.618Z,0
2017-01-17T04:46:40.307Z,0
2017-01-17T04:47:20.892Z,0
2017-01-17T04:48:01.544Z,0
2017-01-17T04:48:42.195Z,0
2017-01-17T04:49:22.850Z,0
2017-01-17T04:50:03.523Z,0
2017-01-17T04:50:44.156Z,0
2017-01-17T04:51:24.809Z,0
2017-01-17T04:52:05.451Z,0
2017-01-17T04:52:46.017Z,0
2017-01-17T04:53:26.674Z,0
2017-01-17T04:54:07.319Z,0
2017-01-17T04:54:47.893Z,0
2017-01-17T04:55:28.453Z,92
2017-01-17T04:56:09.073Z,0
2017-01-17T04:56:49.649Z,0
2017-01-17T04:57:30.274Z,0
2017-01-17T04:58:10.838Z,0
2017-01-17T04:58:51.445Z,0
2017-01-17T04:59:32.033Z,0
2017-01-17T05:00:12.586Z,0
2017-01-17T05:00:53.231Z,0
2017-01-17T05:01:33.886Z,0
2017-01-17T05:02:14.447Z,0
2017-01-17T05:02:55.091Z,0
2017-01-17T05:03:35.639Z,0
2017-01-17T05:04:16.295Z,0
2017-01-17T05:04:56.944Z,0
2017-01-17T05:05:37.532Z,0
2017-01-17T05:06:18.209Z,0
2017-01-17T05:06:58.824Z,0
2017-01-17T05:07:39.450Z,0
2017-01-17T05:08:20.107Z,0
2017-01-17T05:09:00.764Z,0
2017-01-17T05:09:41.426Z,0
2017-01-17T05:10:22.073Z,0
2017-01-17T05:11:02.717Z,0
2017-01-17T05:11:43.370Z,0
2017-01-17T05:12:24.028Z,0
2017-01-17T05:13:04.683Z,0
2017-01-17T05:13:45.334Z,0
2017-01-17T05:14:25.998Z,0
2017-01-17T05:15:06.647Z,84
2017-01-17T05:15:47.288Z,0
2017-01-17T05:16:27.944Z,0
2017-01-17T05:17:08.593Z,0
2017-01-17T05:17:49.245Z,0
2017-01-17T05:18:29.906Z,0
2017-01-17T05:19:10.558Z,0
2017-01-17T05:19:51.202Z,0
2017-01-17T05:20:31.857Z,0
2017-01-17T05:21:12.515Z,0
2017-01-17T05:21:53.160Z,0
2017-01-17T05:22:33.817Z,0
2017-01-17T05:23:14.383Z,0
2017-01-17T05:23:54.986Z,0
2017-01-17T05:24:35.571Z,0
2017-01-17T05:25:17.252Z,0
2017-01-17T05:25:57.811Z,0
2017-01-17T05:26:38.412Z,0
2017-01-17T05:27:19.104Z,0
2017-01-17T05:27:59.752Z,0
2017-01-17T05:28:40.316Z,0
2017-01-17T05:29:20.965Z,0
2017-01-17T05:30:01.620Z,0
2017-01-17T05:30:42.196Z,0
2017-01-17T05:31:22.861Z,0
2017-01-17T05:32:03.469Z,0
2017-01-17T05:32:44.142Z,0
2017-01-17T05:33:24.786Z,96
2017-01-17T05:34:05.432Z,0
2017-01-17T05:34:46.086Z,0
2017-01-17T05:35:26.744Z,0
2017-01-17T05:36:07.406Z,0
2017-01-17T05:36:48.043Z,0
2017-01-17T05:37:28.695Z,0
2017-01-17T05:38:09.252Z,0
2017-01-17T05:38:49.867Z,0
2017-01-17T05:39:30.575Z,0
2017-01-17T05:40:11.413Z,0
2017-01-17T05:40:51.980Z,0
2017-01-17T05:41:32.565Z,0
2017-01-17T05:42:13.170Z,0
2017-01-17T05:42:53.818Z,0
2017-01-17T05:43:34.377Z,0
2017-01-17T05:44:15.019Z,0
2017-01-17T05:44:55.682Z,0
2017-01-17T05:45:36.236Z,0
2017-01-17T05:46:16.881Z,0
2017-01-17T05:46:57.532Z,0
2017-01-17T05:47:38.122Z,0
2017-01-17T05:48:18.724Z,0
2017-01-17T05:48:59.390Z,0
2017-01-17T05:49:40.038Z,0
2017-01-17T05:50:20.697Z,0
2017-01-17T05:51:01.341Z,0
2017-01-17T05:51:42.003Z,0
2017-01-17T05:52:22.650Z,0
2017-01-17T05:53:03.208Z,0
2017-01-17T05:53:43.798Z,0
2017-01-17T05:54:24.394Z,0
2017-01-17T05:55:05.061Z,0
2017-01-17T05:55:45.633Z,0
2017-01-17T05:56:26.196Z,0
2017-01-17T05:57:06.814Z,0
2017-01-17T05:57:47.466Z,0
2017-01-17T05:58:28.033Z,0
2017-01-17T05:59:08.619Z,0
2017-01-17T05:59:50.241Z,0
2017-01-17T06:00:30.794Z,0
2017-01-17T06:01:11.390Z,0
2017-01-17T06:01:52.101Z,0
2017-01-17T06:02:32.754Z,0
2017-01-17T06:03:13.304Z,0
2017-01-17T06:03:53.959Z,0
2017-01-17T06:04:34.613Z,0
2017-01-17T06:05:15.179Z,0
2017-01-17T06:05:55.811Z,0
2017-01-17T06:06:36.465Z,0
2017-01-17T06:07:17.120Z,0
2017-01-17T06:07:57.771Z,0
2017-01-17T06:08:38.421Z,0
2017-01-17T06:09:19.081Z,0
2017-01-17T06:09:59.731Z,0
2017-01-17T06:10:40.393Z,0
2017-01-17T06:11:21.035Z,0
2017-01-17T06:12:01.685Z,0
2017-01-17T06:12:42.342Z,0
2017-01-17T06:13:22.994Z,0
2017-01-17T06:14:03.647Z,0
2017-01-17T06:14:44.297Z,0
2017-01-17T06:15:24.980Z,0
2017-01-17T06:16:05.604Z,0
2017-01-17T06:16:46.258Z,0
2017-01-17T06:17:26.910Z,0
2017-01-17T06:18:07.487Z,0
2017-01-17T06:18:48.062Z,0
2017-01-17T06:19:28.663Z,0
2017-01-17T06:20:09.343Z,0
2017-01-17T06:20:49.892Z,0
2017-01-17T06:21:30.466Z,0
2017-01-17T06:22:11.071Z,0
2017-01-17T06:22:51.725Z,0
2017-01-17T06:23:32.402Z,0
2017-01-17T06:24:12.954Z,0
2017-01-17T06:24:53.581Z,0
2017-01-17T06:25:34.237Z,0
2017-01-17T06:26:14.887Z,0
2017-01-17T06:26:55.540Z,0
2017-01-17T06:27:36.191Z,0
2017-01-17T06:28:16.844Z,0
2017-01-17T06:28:57.529Z,0
2017-01-17T06:29:38.149Z,0
2017-01-17T06:30:18.931Z,0
2017-01-17T06:30:59.586Z,0
2017-01-17T06:31:40.211Z,0
2017-01-17T06:32:20.888Z,0
2017-01-17T06:33:01.521Z,0
2017-01-17T06:33:42.172Z,0
2017-01-17T06:34:22.848Z,0
2017-01-17T06:35:03.475Z,0
2017-01-17T06:35:44.137Z,0
2017-01-17T06:36:24.782Z,0
2017-01-17T06:37:05.438Z,0
2017-01-17T06:37:46.088Z,0
2017-01-17T06:38:26.678Z,0
2017-01-17T06:39:07.292Z,0
2017-01-17T06:39:47.944Z,0
2017-01-17T06:40:28.594Z,0
2017-01-17T06:41:09.143Z,0
2017-01-17T06:41:49.796Z,0
2017-01-17T06:42:30.452Z,0
2017-01-17T06:43:11.027Z,0
2017-01-17T06:43:51.652Z,92
2017-01-17T06:44:32.305Z,96
2017-01-17T06:45:13.066Z,0
2017-01-17T06:45:53.714Z,0
2017-01-17T06:46:34.372Z,0
2017-01-17T06:47:15.020Z,0
2017-01-17T06:47:55.672Z,0
2017-01-17T06:48:36.327Z,0
2017-01-17T06:49:16.980Z,0
2017-01-17T06:49:57.635Z,0
2017-01-17T06:50:38.292Z,0
2017-01-17T06:51:18.942Z,0
2017-01-17T06:51:59.515Z,4
2017-01-17T06:52:40.092Z,4
2017-01-17T06:53:20.780Z,4
2017-01-17T06:54:01.453Z,4
2017-01-17T06:54:42.105Z,4
2017-01-17T06:55:22.754Z,4
2017-01-17T06:56:03.319Z,0
2017-01-17T06:56:43.984Z,4
2017-01-17T06:57:24.628Z,0
2017-01-17T06:58:05.262Z,4
2017-01-17T06:58:45.938Z,4
2017-01-17T06:59:26.572Z,4
2017-01-17T07:00:07.232Z,4
2017-01-17T07:00:47.871Z,4
2017-01-17T07:01:28.525Z,4
2017-01-17T07:02:09.186Z,8
2017-01-17T07:02:49.839Z,8
2017-01-17T07:03:30.492Z,8
2017-01-17T07:04:11.155Z,8
2017-01-17T07:04:51.796Z,8
2017-01-17T07:05:32.448Z,12
2017-01-17T07:06:13.112Z,12
2017-01-17T07:06:53.670Z,12
2017-01-17T07:07:34.309Z,12
2017-01-17T07:08:14.954Z,12
2017-01-17T07:08:55.610Z,16
2017-01-17T07:09:36.269Z,16
2017-01-17T07:10:16.919Z,20
2017-01-17T07:10:57.577Z,16
2017-01-17T07:11:38.219Z,20
2017-01-17T07:12:18.879Z,24
2017-01-17T07:12:59.550Z,24
2017-01-17T07:13:40.129Z,24
2017-01-17T07:14:20.748Z,28
2017-01-17T07:15:01.418Z,28
2017-01-17T07:15:41.986Z,32
2017-01-17T07:16:22.590Z,32
2017-01-17T07:17:03.257Z,40
2017-01-17T07:17:43.832Z,44
2017-01-17T07:18:24.454Z,44
2017-01-17T07:19:05.110Z,48
2017-01-17T07:19:45.763Z,52
2017-01-17T07:20:26.416Z,52
2017-01-17T07:21:06.999Z,60
2017-01-17T07:21:47.619Z,64
2017-01-17T07:22:28.273Z,68
2017-01-17T07:23:08.921Z,72
2017-01-17T07:23:49.484Z,76
2017-01-17T07:24:30.122Z,84
2017-01-17T07:25:10.774Z,84
2017-01-17T07:25:51.348Z,92
2017-01-17T07:26:31.964Z,96
2017-01-17T07:27:12.623Z,100
2017-01-17T07:27:53.189Z,108
2017-01-17T07:28:33.969Z,112
2017-01-17T07:29:14.596Z,120
2017-01-17T07:29:55.251Z,128
2017-01-17T07:30:35.897Z,132
2017-01-17T07:31:16.534Z,140
2017-01-17T07:31:57.192Z,144
2017-01-17T07:32:38.401Z,156
2017-01-17T07:33:19.017Z,164
2017-01-17T07:33:59.590Z,172
2017-01-17T07:34:40.223Z,176
2017-01-17T07:35:20.832Z,188
2017-01-17T07:36:03.474Z,192
2017-01-17T07:36:44.124Z,200
2017-01-17T07:37:24.689Z,208
2017-01-17T07:38:05.322Z,216
2017-01-17T07:38:45.987Z,224
2017-01-17T07:39:26.559Z,232
2017-01-17T07:40:07.236Z,240
2017-01-17T07:40:47.843Z,252
2017-01-17T07:41:28.405Z,264
2017-01-17T07:42:09.002Z,268
2017-01-17T07:42:49.598Z,280
2017-01-17T07:43:30.155Z,292
2017-01-17T07:44:11.815Z,300
2017-01-17T07:44:52.469Z,316
2017-01-17T07:45:33.071Z,328
2017-01-17T07:46:13.743Z,336
2017-01-17T07:46:54.429Z,344
2017-01-17T07:47:35.084Z,356
2017-01-17T07:48:18.273Z,360
2017-01-17T07:48:58.956Z,364
2017-01-17T07:49:39.603Z,372
2017-01-17T07:50:20.167Z,376
2017-01-17T07:51:00.781Z,380
2017-01-17T07:51:41.464Z,392
2017-01-17T07:52:22.107Z,400
2017-01-17T07:53:02.685Z,412
2017-01-17T07:53:43.423Z,408
2017-01-17T07:54:24.076Z,416
2017-01-17T07:55:04.625Z,420
2017-01-17T07:55:45.271Z,432
2017-01-17T07:56:25.925Z,440
2017-01-17T07:57:06.518Z,452
2017-01-17T07:57:47.133Z,464
2017-01-17T07:58:28.810Z,480
2017-01-17T07:59:09.380Z,488
2017-01-17T07:59:49.985Z,496
2017-01-17T08:00:30.667Z,504
2017-01-17T08:01:11.320Z,512
2017-01-17T08:01:51.870Z,524
2017-01-17T08:02:32.481Z,528
2017-01-17T08:03:13.050Z,524
2017-01-17T08:03:53.716Z,616
2017-01-17T08:04:34.378Z,620
2017-01-17T08:05:14.934Z,520
2017-01-17T08:05:55.545Z,524
2017-01-17T08:06:36.225Z,524
2017-01-17T08:07:16.881Z,532
2017-01-17T08:07:57.453Z,548
2017-01-17T08:08:38.058Z,576
2017-01-17T08:09:18.740Z,596
2017-01-17T08:09:59.394Z,616
2017-01-17T08:10:39.975Z,624
2017-01-17T08:11:20.575Z,640
2017-01-17T08:12:01.231Z,644
2017-01-17T08:12:42.012Z,652
2017-01-17T08:13:22.941Z,668
2017-01-17T08:14:08.677Z,692
2017-01-17T08:14:51.678Z,704
2017-01-17T08:15:32.871Z,732
2017-01-17T08:16:13.927Z,784
2017-01-17T08:16:55.275Z,808
2017-01-17T08:17:36.245Z,812
2017-01-17T08:18:18.203Z,812
2017-01-17T08:18:59.291Z,820
2017-01-17T08:19:40.780Z,852
2017-01-17T08:20:21.873Z,912
2017-01-17T08:21:02.549Z,960
2017-01-17T08:21:43.144Z,948
2017-01-17T08:22:23.805Z,948
2017-01-17T08:23:04.394Z,960
2017-01-17T08:23:45.048Z,964
2017-01-17T08:24:25.597Z,960
2017-01-17T08:25:06.245Z,960
2017-01-17T08:25:46.796Z,956
2017-01-17T08:26:27.449Z,1032
2017-01-17T08:27:08.045Z,928
2017-01-17T08:27:48.631Z,912
2017-01-17T08:28:29.302Z,888
2017-01-17T08:29:09.962Z,880
2017-01-17T08:29:50.614Z,880
2017-01-17T08:30:31.270Z,900
2017-01-17T08:31:11.917Z,924
2017-01-17T08:31:52.569Z,956
2017-01-17T08:32:33.127Z,1000
2017-01-17T08:33:13.776Z,1036
2017-01-17T08:33:54.430Z,1048
2017-01-17T08:34:35.082Z,1032
2017-01-17T08:35:15.733Z,996
2017-01-17T08:35:56.388Z,988
2017-01-17T08:36:37.045Z,1012
2017-01-17T08:37:17.694Z,1072
2017-01-17T08:37:58.346Z,1128
2017-01-17T08:38:38.899Z,1176
2017-01-17T08:39:19.512Z,1196
2017-01-17T08:40:00.195Z,1208
2017-01-17T08:40:40.867Z,1208
2017-01-17T08:41:21.422Z,1204
2017-01-17T08:42:02.022Z,1244
2017-01-17T08:42:42.714Z,1304
2017-01-17T08:43:23.365Z,1352
2017-01-17T08:44:03.915Z,1356
2017-01-17T08:44:44.527Z,1304
2017-01-17T08:45:25.223Z,1268
2017-01-17T08:46:05.811Z,1276
2017-01-17T08:46:46.499Z,1316
2017-01-17T08:47:28.099Z,1360
2017-01-17T08:48:08.753Z,1424
2017-01-17T08:48:49.315Z,1484
2017-01-17T08:49:29.907Z,1552
2017-01-17T08:50:10.504Z,1588
2017-01-17T08:50:51.189Z,1604
2017-01-17T08:51:31.753Z,1652
2017-01-17T08:52:13.391Z,1680
2017-01-17T08:52:54.038Z,1708
2017-01-17T08:53:34.700Z,1712
2017-01-17T08:54:15.257Z,1676
2017-01-17T08:54:55.836Z,1628
2017-01-17T08:55:36.447Z,1612
2017-01-17T08:56:17.100Z,1616
2017-01-17T08:56:57.661Z,1656
2017-01-17T08:57:38.274Z,1708
2017-01-17T08:58:18.850Z,1776
2017-01-17T08:58:59.516Z,1812
2017-01-17T08:59:40.092Z,1808
2017-01-17T09:00:20.811Z,1764
2017-01-17T09:01:01.463Z,1740
2017-01-17T09:01:42.111Z,1760
2017-01-17T09:02:23.792Z,1788
2017-01-17T09:03:04.439Z,1832
2017-01-17T09:03:45.021Z,1864
2017-01-17T09:04:25.608Z,1904
2017-01-17T09:05:06.179Z,1948
2017-01-17T09:05:46.850Z,1956
2017-01-17T09:06:27.433Z,1976
2017-01-17T09:07:08.060Z,1968
2017-01-17T09:07:48.658Z,1872
2017-01-17T09:08:29.311Z,1748
2017-01-17T09:09:10.938Z,1624
2017-01-17T09:09:51.600Z,1572
2017-01-17T09:10:32.266Z,1596
2017-01-17T09:11:12.894Z,1652
2017-01-17T09:11:53.548Z,1668
2017-01-17T09:12:34.200Z,1672
2017-01-17T09:13:14.847Z,1704
2017-01-17T09:13:55.527Z,1704
2017-01-17T09:14:36.161Z,1672
2017-01-17T09:15:16.814Z,1632
2017-01-17T09:15:57.468Z,1660
2017-01-17T09:16:38.119Z,1728
2017-01-17T09:17:18.884Z,1728
2017-01-17T09:17:59.536Z,1752
2017-01-17T09:18:40.185Z,1812
2017-01-17T09:19:20.842Z,1848
2017-01-17T09:20:01.496Z,1836
2017-01-17T09:20:42.159Z,1844
2017-01-17T09:21:22.672Z,1876
2017-01-17T09:22:03.330Z,1904
2017-01-17T09:22:44.010Z,2028
2017-01-17T09:23:24.646Z,2084
2017-01-17T09:24:05.298Z,1996
2017-01-17T09:24:45.959Z,1944
2017-01-17T09:25:26.611Z,1888
2017-01-17T09:26:07.271Z,1916
2017-01-17T09:26:47.912Z,1960
2017-01-17T09:27:28.493Z,1948
2017-01-17T09:28:09.191Z,1948
2017-01-17T09:28:49.847Z,1944
2017-01-17T09:29:30.491Z,1932
2017-01-17T09:30:11.300Z,1968
2017-01-17T09:30:51.921Z,1964
2017-01-17T09:31:32.565Z,2008
2017-01-17T09:32:13.211Z,2100
2017-01-17T09:32:54.807Z,2192
2017-01-17T09:33:35.568Z,2360
2017-01-17T09:34:16.140Z,2488
2017-01-17T09:34:56.770Z,2548
2017-01-17T09:35:37.344Z,2580
2017-01-17T09:36:17.921Z,2620
2017-01-17T09:36:58.562Z,2604
2017-01-17T09:37:39.188Z,2608
2017-01-17T09:38:19.764Z,2576
2017-01-17T09:39:00.499Z,2520
2017-01-17T09:39:41.088Z,2492
2017-01-17T09:40:21.738Z,2568
2017-01-17T09:41:02.402Z,2632
2017-01-17T09:41:43.006Z,2600
2017-01-17T09:42:23.654Z,2552
2017-01-17T09:43:04.312Z,2560
2017-01-17T09:43:44.954Z,2584
2017-01-17T09:44:25.613Z,2656
2017-01-17T09:45:06.260Z,2676
2017-01-17T09:45:46.918Z,2644
2017-01-17T09:46:27.572Z,2684
2017-01-17T09:47:08.213Z,2736
2017-01-17T09:47:48.880Z,2804